sensor_id;sensor_type;location;lat;lon;timestamp;P1;durP1;ratioP1;P2;durP2;ratioP2
38182;SDS011;23991;52.430;10.586;2023-03-01T00:01:39;17.95;;;7.28;;
38182;SDS011;23991;52.430;10.586;2023-03-01T00:04:04;16.52;;;6.25;;
38182;SDS011;23991;52.430;10.586;2023-03-01T00:06:30;11.13;;;6.25;;
38182;SDS011;23991;52.430;10.586;2023-03-01T00:08:55;11.98;;;6.18;;
38182;SDS011;23991;52.430;10.586;2023-03-01T00:11:22;10.25;;;5.15;;
38182;SDS011;23991;52.430;10.586;2023-03-01T00:13:51;13.48;;;6.35;;
38182;SDS011;23991;52.430;10.586;2023-03-01T00:16:22;16.58;;;6.75;;
38182;SDS011;23991;52.430;10.586;2023-03-01T00:18:53;14.35;;;6.93;;
38182;SDS011;23991;52.430;10.586;2023-03-01T00:21:19;11.40;;;6.28;;
38182;SDS011;23991;52.430;10.586;2023-03-01T00:23:46;9.57;;;5.63;;
38182;SDS011;23991;52.430;10.586;2023-03-01T00:26:13;10.13;;;5.75;;
38182;SDS011;23991;52.430;10.586;2023-03-01T00:28:40;13.25;;;6.25;;
38182;SDS011;23991;52.430;10.586;2023-03-01T00:31:07;11.55;;;5.90;;
38182;SDS011;23991;52.430;10.586;2023-03-01T00:33:35;11.85;;;6.05;;
38182;SDS011;23991;52.430;10.586;2023-03-01T00:36:01;10.40;;;5.10;;
38182;SDS011;23991;52.430;10.586;2023-03-01T00:38:26;11.57;;;5.28;;
38182;SDS011;23991;52.430;10.586;2023-03-01T00:40:52;9.10;;;5.65;;
38182;SDS011;23991;52.430;10.586;2023-03-01T00:43:17;13.00;;;5.57;;
38182;SDS011;23991;52.430;10.586;2023-03-01T00:45:44;11.60;;;5.82;;
38182;SDS011;23991;52.430;10.586;2023-03-01T00:48:10;8.68;;;5.80;;
38182;SDS011;23991;52.430;10.586;2023-03-01T00:50:35;9.93;;;5.40;;
38182;SDS011;23991;52.430;10.586;2023-03-01T00:53:01;12.77;;;5.82;;
38182;SDS011;23991;52.430;10.586;2023-03-01T00:55:27;11.75;;;6.47;;
38182;SDS011;23991;52.430;10.586;2023-03-01T00:57:52;10.73;;;5.88;;
38182;SDS011;23991;52.430;10.586;2023-03-01T01:00:18;10.20;;;5.47;;
38182;SDS011;23991;52.430;10.586;2023-03-01T01:02:45;10.07;;;5.95;;
38182;SDS011;23991;52.430;10.586;2023-03-01T01:05:11;12.10;;;5.90;;
38182;SDS011;23991;52.430;10.586;2023-03-01T01:07:37;9.57;;;5.88;;
38182;SDS011;23991;52.430;10.586;2023-03-01T01:10:02;11.52;;;5.65;;
38182;SDS011;23991;52.430;10.586;2023-03-01T01:12:28;9.68;;;5.07;;
38182;SDS011;23991;52.430;10.586;2023-03-01T01:14:54;8.35;;;5.18;;
38182;SDS011;23991;52.430;10.586;2023-03-01T01:17:19;9.63;;;4.93;;
38182;SDS011;23991;52.430;10.586;2023-03-01T01:19:45;10.77;;;5.20;;
38182;SDS011;23991;52.430;10.586;2023-03-01T01:22:11;13.55;;;6.60;;
38182;SDS011;23991;52.430;10.586;2023-03-01T01:24:36;10.45;;;5.90;;
38182;SDS011;23991;52.430;10.586;2023-03-01T01:27:02;11.38;;;5.88;;
38182;SDS011;23991;52.430;10.586;2023-03-01T01:29:27;10.82;;;6.47;;
38182;SDS011;23991;52.430;10.586;2023-03-01T01:31:53;10.13;;;6.18;;
38182;SDS011;23991;52.430;10.586;2023-03-01T01:34:20;11.70;;;5.45;;
38182;SDS011;23991;52.430;10.586;2023-03-01T01:36:50;10.02;;;5.82;;
38182;SDS011;23991;52.430;10.586;2023-03-01T01:39:18;9.60;;;4.97;;
38182;SDS011;23991;52.430;10.586;2023-03-01T01:41:44;12.52;;;5.95;;
38182;SDS011;23991;52.430;10.586;2023-03-01T01:44:10;10.90;;;6.57;;
38182;SDS011;23991;52.430;10.586;2023-03-01T01:46:52;11.38;;;5.80;;
38182;SDS011;23991;52.430;10.586;2023-03-01T01:55:04;11.77;;;5.70;;
38182;SDS011;23991;52.430;10.586;2023-03-01T01:57:37;9.73;;;5.80;;
38182;SDS011;23991;52.430;10.586;2023-03-01T02:00:07;10.02;;;5.63;;
38182;SDS011;23991;52.430;10.586;2023-03-01T02:02:36;10.88;;;6.50;;
38182;SDS011;23991;52.430;10.586;2023-03-01T02:05:47;11.00;;;5.85;;
38182;SDS011;23991;52.430;10.586;2023-03-01T02:08:05;10.50;;;5.50;;
38182;SDS011;23991;52.430;10.586;2023-03-01T02:10:32;10.00;;;5.70;;
38182;SDS011;23991;52.430;10.586;2023-03-01T02:12:59;9.48;;;5.15;;
38182;SDS011;23991;52.430;10.586;2023-03-01T02:15:26;11.82;;;5.53;;
38182;SDS011;23991;52.430;10.586;2023-03-01T02:17:52;10.52;;;5.35;;
38182;SDS011;23991;52.430;10.586;2023-03-01T02:22:59;10.60;;;6.25;;
38182;SDS011;23991;52.430;10.586;2023-03-01T02:28:31;10.38;;;5.47;;
38182;SDS011;23991;52.430;10.586;2023-03-01T02:30:58;9.85;;;6.22;;
38182;SDS011;23991;52.430;10.586;2023-03-01T02:33:42;9.75;;;5.45;;
38182;SDS011;23991;52.430;10.586;2023-03-01T02:36:26;12.45;;;6.40;;
38182;SDS011;23991;52.430;10.586;2023-03-01T02:38:57;11.05;;;6.20;;
38182;SDS011;23991;52.430;10.586;2023-03-01T02:41:25;11.50;;;5.97;;
38182;SDS011;23991;52.430;10.586;2023-03-01T02:43:53;9.65;;;5.30;;
38182;SDS011;23991;52.430;10.586;2023-03-01T02:46:20;8.57;;;5.30;;
38182;SDS011;23991;52.430;10.586;2023-03-01T02:48:48;9.02;;;5.55;;
38182;SDS011;23991;52.430;10.586;2023-03-01T02:51:25;11.25;;;6.07;;
38182;SDS011;23991;52.430;10.586;2023-03-01T02:54:17;9.65;;;6.13;;
38182;SDS011;23991;52.430;10.586;2023-03-01T02:56:45;12.07;;;5.70;;
38182;SDS011;23991;52.430;10.586;2023-03-01T02:59:15;10.75;;;5.93;;
38182;SDS011;23991;52.430;10.586;2023-03-01T03:01:43;12.10;;;5.63;;
38182;SDS011;23991;52.430;10.586;2023-03-01T03:04:10;10.52;;;6.03;;
38182;SDS011;23991;52.430;10.586;2023-03-01T03:06:42;9.45;;;5.05;;
38182;SDS011;23991;52.430;10.586;2023-03-01T03:09:08;9.57;;;5.18;;
38182;SDS011;23991;52.430;10.586;2023-03-01T03:11:33;9.45;;;5.20;;
38182;SDS011;23991;52.430;10.586;2023-03-01T03:13:59;13.18;;;5.75;;
38182;SDS011;23991;52.430;10.586;2023-03-01T03:16:25;10.07;;;5.60;;
38182;SDS011;23991;52.430;10.586;2023-03-01T03:18:51;9.30;;;5.80;;
38182;SDS011;23991;52.430;10.586;2023-03-01T03:21:16;8.15;;;5.03;;
38182;SDS011;23991;52.430;10.586;2023-03-01T03:23:42;8.95;;;5.35;;
38182;SDS011;23991;52.430;10.586;2023-03-01T03:26:08;9.73;;;5.38;;
38182;SDS011;23991;52.430;10.586;2023-03-01T03:28:38;10.80;;;5.22;;
38182;SDS011;23991;52.430;10.586;2023-03-01T03:31:05;11.20;;;6.65;;
38182;SDS011;23991;52.430;10.586;2023-03-01T03:33:31;8.90;;;5.35;;
38182;SDS011;23991;52.430;10.586;2023-03-01T03:35:57;10.13;;;5.75;;
38182;SDS011;23991;52.430;10.586;2023-03-01T03:38:23;8.82;;;5.85;;
38182;SDS011;23991;52.430;10.586;2023-03-01T03:40:52;9.98;;;6.20;;
38182;SDS011;23991;52.430;10.586;2023-03-01T03:43:27;9.27;;;5.47;;
38182;SDS011;23991;52.430;10.586;2023-03-01T03:45:53;9.88;;;5.38;;
38182;SDS011;23991;52.430;10.586;2023-03-01T03:48:19;9.45;;;5.32;;
38182;SDS011;23991;52.430;10.586;2023-03-01T03:50:49;13.10;;;6.28;;
38182;SDS011;23991;52.430;10.586;2023-03-01T03:53:16;11.07;;;5.78;;
38182;SDS011;23991;52.430;10.586;2023-03-01T03:55:42;13.38;;;6.80;;
38182;SDS011;23991;52.430;10.586;2023-03-01T03:58:09;11.25;;;6.07;;
38182;SDS011;23991;52.430;10.586;2023-03-01T04:00:36;11.95;;;5.85;;
38182;SDS011;23991;52.430;10.586;2023-03-01T04:03:03;11.30;;;5.38;;
38182;SDS011;23991;52.430;10.586;2023-03-01T04:05:30;9.95;;;5.80;;
38182;SDS011;23991;52.430;10.586;2023-03-01T04:07:56;10.13;;;5.85;;
38182;SDS011;23991;52.430;10.586;2023-03-01T04:10:29;10.25;;;5.78;;
38182;SDS011;23991;52.430;10.586;2023-03-01T04:12:56;10.05;;;6.22;;
38182;SDS011;23991;52.430;10.586;2023-03-01T04:15:23;9.50;;;5.43;;
38182;SDS011;23991;52.430;10.586;2023-03-01T04:17:50;9.40;;;5.45;;
38182;SDS011;23991;52.430;10.586;2023-03-01T04:20:21;9.27;;;4.93;;
38182;SDS011;23991;52.430;10.586;2023-03-01T04:25:38;11.30;;;4.97;;
38182;SDS011;23991;52.430;10.586;2023-03-01T04:28:06;8.70;;;5.32;;
38182;SDS011;23991;52.430;10.586;2023-03-01T04:30:32;10.00;;;5.07;;
38182;SDS011;23991;52.430;10.586;2023-03-01T04:33:01;9.65;;;5.55;;
38182;SDS011;23991;52.430;10.586;2023-03-01T04:35:31;9.93;;;5.47;;
38182;SDS011;23991;52.430;10.586;2023-03-01T04:37:57;11.07;;;5.07;;
38182;SDS011;23991;52.430;10.586;2023-03-01T04:40:23;8.77;;;4.88;;
38182;SDS011;23991;52.430;10.586;2023-03-01T04:42:50;8.02;;;4.75;;
38182;SDS011;23991;52.430;10.586;2023-03-01T04:45:15;12.13;;;5.25;;
38182;SDS011;23991;52.430;10.586;2023-03-01T04:47:42;9.38;;;4.75;;
38182;SDS011;23991;52.430;10.586;2023-03-01T04:50:09;11.80;;;5.50;;
38182;SDS011;23991;52.430;10.586;2023-03-01T04:52:36;9.13;;;5.07;;
38182;SDS011;23991;52.430;10.586;2023-03-01T04:55:02;13.82;;;5.65;;
38182;SDS011;23991;52.430;10.586;2023-03-01T04:57:29;9.55;;;5.45;;
38182;SDS011;23991;52.430;10.586;2023-03-01T04:59:55;9.13;;;5.45;;
38182;SDS011;23991;52.430;10.586;2023-03-01T05:02:20;12.65;;;6.57;;
38182;SDS011;23991;52.430;10.586;2023-03-01T05:04:46;13.02;;;6.82;;
38182;SDS011;23991;52.430;10.586;2023-03-01T05:07:11;10.50;;;6.32;;
38182;SDS011;23991;52.430;10.586;2023-03-01T05:09:38;12.18;;;6.82;;
38182;SDS011;23991;52.430;10.586;2023-03-01T05:12:04;14.50;;;6.65;;
38182;SDS011;23991;52.430;10.586;2023-03-01T05:14:30;17.45;;;7.05;;
38182;SDS011;23991;52.430;10.586;2023-03-01T05:16:55;19.92;;;8.30;;
38182;SDS011;23991;52.430;10.586;2023-03-01T05:19:28;21.35;;;9.35;;
38182;SDS011;23991;52.430;10.586;2023-03-01T05:21:55;16.98;;;7.55;;
38182;SDS011;23991;52.430;10.586;2023-03-01T05:24:32;19.00;;;7.85;;
38182;SDS011;23991;52.430;10.586;2023-03-01T05:26:59;16.65;;;7.75;;
38182;SDS011;23991;52.430;10.586;2023-03-01T05:29:26;16.98;;;7.72;;
38182;SDS011;23991;52.430;10.586;2023-03-01T05:31:54;22.77;;;9.50;;
38182;SDS011;23991;52.430;10.586;2023-03-01T05:34:24;18.58;;;8.13;;
38182;SDS011;23991;52.430;10.586;2023-03-01T05:36:51;19.48;;;7.80;;
38182;SDS011;23991;52.430;10.586;2023-03-01T05:39:19;13.70;;;6.70;;
38182;SDS011;23991;52.430;10.586;2023-03-01T05:41:46;16.00;;;7.00;;
38182;SDS011;23991;52.430;10.586;2023-03-01T05:44:13;15.98;;;7.35;;
38182;SDS011;23991;52.430;10.586;2023-03-01T05:46:38;14.75;;;7.28;;
38182;SDS011;23991;52.430;10.586;2023-03-01T05:49:04;10.93;;;5.97;;
38182;SDS011;23991;52.430;10.586;2023-03-01T05:51:30;13.70;;;5.85;;
38182;SDS011;23991;52.430;10.586;2023-03-01T05:53:55;10.20;;;5.30;;
38182;SDS011;23991;52.430;10.586;2023-03-01T05:56:21;7.38;;;5.18;;
38182;SDS011;23991;52.430;10.586;2023-03-01T05:58:50;10.15;;;5.70;;
38182;SDS011;23991;52.430;10.586;2023-03-01T06:01:15;11.50;;;5.55;;
38182;SDS011;23991;52.430;10.586;2023-03-01T06:03:41;11.25;;;5.40;;
38182;SDS011;23991;52.430;10.586;2023-03-01T06:06:07;13.25;;;5.80;;
38182;SDS011;23991;52.430;10.586;2023-03-01T06:08:32;11.18;;;5.22;;
38182;SDS011;23991;52.430;10.586;2023-03-01T06:10:58;13.45;;;5.35;;
38182;SDS011;23991;52.430;10.586;2023-03-01T06:13:23;10.65;;;6.18;;
38182;SDS011;23991;52.430;10.586;2023-03-01T06:15:49;7.40;;;4.80;;
38182;SDS011;23991;52.430;10.586;2023-03-01T06:18:15;11.18;;;5.43;;
38182;SDS011;23991;52.430;10.586;2023-03-01T06:20:40;9.43;;;5.50;;
38182;SDS011;23991;52.430;10.586;2023-03-01T06:23:06;8.93;;;4.80;;
38182;SDS011;23991;52.430;10.586;2023-03-01T06:25:32;10.27;;;4.82;;
38182;SDS011;23991;52.430;10.586;2023-03-01T06:27:57;8.13;;;4.45;;
38182;SDS011;23991;52.430;10.586;2023-03-01T06:30:23;8.57;;;4.85;;
38182;SDS011;23991;52.430;10.586;2023-03-01T06:32:50;11.70;;;5.35;;
38182;SDS011;23991;52.430;10.586;2023-03-01T06:35:16;8.52;;;5.10;;
38182;SDS011;23991;52.430;10.586;2023-03-01T06:37:43;7.45;;;4.80;;
38182;SDS011;23991;52.430;10.586;2023-03-01T06:40:10;10.77;;;5.82;;
38182;SDS011;23991;52.430;10.586;2023-03-01T06:42:36;11.07;;;5.70;;
38182;SDS011;23991;52.430;10.586;2023-03-01T06:45:05;9.13;;;5.80;;
38182;SDS011;23991;52.430;10.586;2023-03-01T06:47:32;11.98;;;6.50;;
38182;SDS011;23991;52.430;10.586;2023-03-01T06:50:01;12.88;;;5.90;;
38182;SDS011;23991;52.430;10.586;2023-03-01T06:52:27;10.25;;;6.25;;
38182;SDS011;23991;52.430;10.586;2023-03-01T06:54:53;8.73;;;5.53;;
38182;SDS011;23991;52.430;10.586;2023-03-01T06:57:18;9.05;;;5.57;;
38182;SDS011;23991;52.430;10.586;2023-03-01T06:59:44;11.95;;;5.55;;
38182;SDS011;23991;52.430;10.586;2023-03-01T07:02:11;10.20;;;6.22;;
38182;SDS011;23991;52.430;10.586;2023-03-01T07:04:37;13.80;;;6.60;;
38182;SDS011;23991;52.430;10.586;2023-03-01T07:07:03;9.27;;;5.50;;
38182;SDS011;23991;52.430;10.586;2023-03-01T07:09:29;13.00;;;6.90;;
38182;SDS011;23991;52.430;10.586;2023-03-01T07:11:55;12.60;;;6.28;;
38182;SDS011;23991;52.430;10.586;2023-03-01T07:14:21;12.90;;;6.45;;
38182;SDS011;23991;52.430;10.586;2023-03-01T07:16:49;11.20;;;6.50;;
38182;SDS011;23991;52.430;10.586;2023-03-01T07:19:15;10.75;;;6.72;;
38182;SDS011;23991;52.430;10.586;2023-03-01T07:21:41;13.02;;;7.38;;
38182;SDS011;23991;52.430;10.586;2023-03-01T07:24:07;12.55;;;6.40;;
38182;SDS011;23991;52.430;10.586;2023-03-01T07:26:33;14.20;;;7.05;;
38182;SDS011;23991;52.430;10.586;2023-03-01T07:28:59;12.00;;;6.88;;
38182;SDS011;23991;52.430;10.586;2023-03-01T07:31:25;14.13;;;6.82;;
38182;SDS011;23991;52.430;10.586;2023-03-01T07:33:53;14.15;;;7.07;;
38182;SDS011;23991;52.430;10.586;2023-03-01T07:36:19;11.95;;;7.18;;
38182;SDS011;23991;52.430;10.586;2023-03-01T07:38:44;11.68;;;6.18;;
38182;SDS011;23991;52.430;10.586;2023-03-01T07:41:10;13.02;;;6.45;;
38182;SDS011;23991;52.430;10.586;2023-03-01T07:43:35;11.63;;;6.93;;
38182;SDS011;23991;52.430;10.586;2023-03-01T07:46:01;10.02;;;6.82;;
38182;SDS011;23991;52.430;10.586;2023-03-01T07:48:28;12.98;;;6.95;;
38182;SDS011;23991;52.430;10.586;2023-03-01T07:50:54;12.77;;;6.90;;
38182;SDS011;23991;52.430;10.586;2023-03-01T07:53:22;12.82;;;6.90;;
38182;SDS011;23991;52.430;10.586;2023-03-01T07:55:48;11.63;;;6.63;;
38182;SDS011;23991;52.430;10.586;2023-03-01T07:58:13;11.60;;;7.03;;
38182;SDS011;23991;52.430;10.586;2023-03-01T08:00:39;11.82;;;6.90;;
38182;SDS011;23991;52.430;10.586;2023-03-01T08:03:04;12.23;;;7.18;;
38182;SDS011;23991;52.430;10.586;2023-03-01T08:05:30;14.98;;;7.78;;
38182;SDS011;23991;52.430;10.586;2023-03-01T08:07:55;17.17;;;8.07;;
38182;SDS011;23991;52.430;10.586;2023-03-01T08:10:21;14.82;;;8.52;;
38182;SDS011;23991;52.430;10.586;2023-03-01T08:12:46;14.27;;;8.63;;
38182;SDS011;23991;52.430;10.586;2023-03-01T08:15:12;14.50;;;7.47;;
38182;SDS011;23991;52.430;10.586;2023-03-01T08:17:37;15.48;;;8.23;;
38182;SDS011;23991;52.430;10.586;2023-03-01T08:20:03;14.65;;;8.82;;
38182;SDS011;23991;52.430;10.586;2023-03-01T08:22:31;12.45;;;7.55;;
38182;SDS011;23991;52.430;10.586;2023-03-01T08:24:57;13.63;;;7.53;;
38182;SDS011;23991;52.430;10.586;2023-03-01T08:27:22;13.68;;;7.32;;
38182;SDS011;23991;52.430;10.586;2023-03-01T08:29:48;12.55;;;7.63;;
38182;SDS011;23991;52.430;10.586;2023-03-01T08:32:13;12.20;;;7.10;;
38182;SDS011;23991;52.430;10.586;2023-03-01T08:34:39;12.93;;;7.50;;
38182;SDS011;23991;52.430;10.586;2023-03-01T08:37:04;14.23;;;8.02;;
38182;SDS011;23991;52.430;10.586;2023-03-01T08:39:30;12.45;;;7.25;;
38182;SDS011;23991;52.430;10.586;2023-03-01T08:41:56;11.98;;;7.55;;
38182;SDS011;23991;52.430;10.586;2023-03-01T08:44:22;13.70;;;8.48;;
38182;SDS011;23991;52.430;10.586;2023-03-01T08:46:47;13.40;;;7.35;;
38182;SDS011;23991;52.430;10.586;2023-03-01T08:49:15;16.70;;;7.85;;
38182;SDS011;23991;52.430;10.586;2023-03-01T08:51:43;12.35;;;7.45;;
38182;SDS011;23991;52.430;10.586;2023-03-01T08:54:19;12.30;;;7.32;;
38182;SDS011;23991;52.430;10.586;2023-03-01T08:56:47;12.52;;;8.38;;
38182;SDS011;23991;52.430;10.586;2023-03-01T08:59:13;11.65;;;7.22;;
38182;SDS011;23991;52.430;10.586;2023-03-01T09:01:40;12.73;;;7.57;;
38182;SDS011;23991;52.430;10.586;2023-03-01T09:04:08;12.63;;;7.35;;
38182;SDS011;23991;52.430;10.586;2023-03-01T09:06:34;12.68;;;7.32;;
38182;SDS011;23991;52.430;10.586;2023-03-01T09:09:00;11.27;;;7.03;;
38182;SDS011;23991;52.430;10.586;2023-03-01T09:11:27;10.48;;;5.47;;
38182;SDS011;23991;52.430;10.586;2023-03-01T09:13:53;9.40;;;5.40;;
38182;SDS011;23991;52.430;10.586;2023-03-01T09:16:20;10.68;;;5.18;;
38182;SDS011;23991;52.430;10.586;2023-03-01T09:18:55;8.55;;;4.95;;
38182;SDS011;23991;52.430;10.586;2023-03-01T09:21:21;7.65;;;4.50;;
38182;SDS011;23991;52.430;10.586;2023-03-01T09:23:48;8.23;;;4.40;;
38182;SDS011;23991;52.430;10.586;2023-03-01T09:26:18;10.10;;;4.53;;
38182;SDS011;23991;52.430;10.586;2023-03-01T09:28:47;8.73;;;4.57;;
38182;SDS011;23991;52.430;10.586;2023-03-01T09:31:14;8.18;;;4.70;;
38182;SDS011;23991;52.430;10.586;2023-03-01T09:33:41;7.47;;;4.68;;
38182;SDS011;23991;52.430;10.586;2023-03-01T09:36:09;6.53;;;4.40;;
38182;SDS011;23991;52.430;10.586;2023-03-01T09:38:46;4.93;;;2.85;;
38182;SDS011;23991;52.430;10.586;2023-03-01T09:43:52;9.07;;;4.18;;
38182;SDS011;23991;52.430;10.586;2023-03-01T09:46:40;8.23;;;4.03;;
38182;SDS011;23991;52.430;10.586;2023-03-01T09:49:15;8.18;;;4.10;;
38182;SDS011;23991;52.430;10.586;2023-03-01T09:51:48;8.75;;;4.50;;
38182;SDS011;23991;52.430;10.586;2023-03-01T09:54:39;9.45;;;4.57;;
38182;SDS011;23991;52.430;10.586;2023-03-01T09:57:06;7.43;;;4.32;;
38182;SDS011;23991;52.430;10.586;2023-03-01T09:59:49;7.72;;;4.47;;
38182;SDS011;23991;52.430;10.586;2023-03-01T10:02:23;7.50;;;4.30;;
38182;SDS011;23991;52.430;10.586;2023-03-01T10:05:25;7.43;;;4.15;;
38182;SDS011;23991;52.430;10.586;2023-03-01T10:10:37;4.75;;;2.80;;
38182;SDS011;23991;52.430;10.586;2023-03-01T10:13:15;7.43;;;3.42;;
38182;SDS011;23991;52.430;10.586;2023-03-01T10:15:50;5.80;;;3.95;;
38182;SDS011;23991;52.430;10.586;2023-03-01T10:18:31;4.10;;;2.75;;
38182;SDS011;23991;52.430;10.586;2023-03-01T10:20:58;7.47;;;3.60;;
38182;SDS011;23991;52.430;10.586;2023-03-01T10:23:26;5.03;;;3.08;;
38182;SDS011;23991;52.430;10.586;2023-03-01T10:31:12;5.53;;;3.15;;
38182;SDS011;23991;52.430;10.586;2023-03-01T10:33:39;5.70;;;3.55;;
38182;SDS011;23991;52.430;10.586;2023-03-01T10:36:06;8.20;;;3.33;;
38182;SDS011;23991;52.430;10.586;2023-03-01T10:38:47;8.18;;;4.00;;
38182;SDS011;23991;52.430;10.586;2023-03-01T10:41:18;5.00;;;2.55;;
38182;SDS011;23991;52.430;10.586;2023-03-01T10:43:45;4.43;;;2.55;;
38182;SDS011;23991;52.430;10.586;2023-03-01T10:46:35;4.43;;;2.90;;
38182;SDS011;23991;52.430;10.586;2023-03-01T10:49:12;4.90;;;2.92;;
38182;SDS011;23991;52.430;10.586;2023-03-01T10:51:42;4.00;;;2.83;;
38182;SDS011;23991;52.430;10.586;2023-03-01T10:54:22;5.60;;;3.28;;
38182;SDS011;23991;52.430;10.586;2023-03-01T10:56:54;4.55;;;2.53;;
38182;SDS011;23991;52.430;10.586;2023-03-01T10:59:32;5.15;;;2.90;;
38182;SDS011;23991;52.430;10.586;2023-03-01T11:02:20;4.25;;;2.40;;
38182;SDS011;23991;52.430;10.586;2023-03-01T11:04:56;5.93;;;3.30;;
38182;SDS011;23991;52.430;10.586;2023-03-01T11:07:22;5.57;;;2.45;;
38182;SDS011;23991;52.430;10.586;2023-03-01T11:09:47;6.25;;;3.25;;
38182;SDS011;23991;52.430;10.586;2023-03-01T11:12:14;4.38;;;2.90;;
38182;SDS011;23991;52.430;10.586;2023-03-01T11:14:51;5.70;;;3.13;;
38182;SDS011;23991;52.430;10.586;2023-03-01T11:17:23;5.30;;;3.00;;
38182;SDS011;23991;52.430;10.586;2023-03-01T11:20:00;5.22;;;2.92;;
38182;SDS011;23991;52.430;10.586;2023-03-01T11:22:39;5.05;;;2.72;;
38182;SDS011;23991;52.430;10.586;2023-03-01T11:25:15;4.85;;;2.90;;
38182;SDS011;23991;52.430;10.586;2023-03-01T11:27:43;4.68;;;2.80;;
38182;SDS011;23991;52.430;10.586;2023-03-01T11:30:24;5.40;;;3.05;;
38182;SDS011;23991;52.430;10.586;2023-03-01T11:35:41;5.07;;;3.00;;
38182;SDS011;23991;52.430;10.586;2023-03-01T11:40:39;3.88;;;2.40;;
38182;SDS011;23991;52.430;10.586;2023-03-01T11:48:44;5.35;;;3.03;;
38182;SDS011;23991;52.430;10.586;2023-03-01T11:54:11;3.92;;;2.50;;
38182;SDS011;23991;52.430;10.586;2023-03-01T11:56:46;4.78;;;2.85;;
38182;SDS011;23991;52.430;10.586;2023-03-01T12:01:55;5.07;;;3.13;;
38182;SDS011;23991;52.430;10.586;2023-03-01T12:07:46;5.40;;;2.97;;
38182;SDS011;23991;52.430;10.586;2023-03-01T12:10:19;7.63;;;2.75;;
38182;SDS011;23991;52.430;10.586;2023-03-01T12:13:13;4.93;;;2.60;;
38182;SDS011;23991;52.430;10.586;2023-03-01T12:19:00;4.22;;;2.55;;
38182;SDS011;23991;52.430;10.586;2023-03-01T12:21:59;5.43;;;2.50;;
38182;SDS011;23991;52.430;10.586;2023-03-01T12:25:48;4.65;;;2.72;;
38182;SDS011;23991;52.430;10.586;2023-03-01T12:27:52;6.90;;;2.50;;
38182;SDS011;23991;52.430;10.586;2023-03-01T12:33:50;4.90;;;2.40;;
38182;SDS011;23991;52.430;10.586;2023-03-01T12:47:49;4.75;;;2.35;;
38182;SDS011;23991;52.430;10.586;2023-03-01T12:50:24;3.97;;;2.55;;
38182;SDS011;23991;52.430;10.586;2023-03-01T12:52:57;4.35;;;2.40;;
38182;SDS011;23991;52.430;10.586;2023-03-01T12:55:37;5.53;;;2.53;;
38182;SDS011;23991;52.430;10.586;2023-03-01T12:58:21;3.35;;;2.20;;
38182;SDS011;23991;52.430;10.586;2023-03-01T13:01:05;5.03;;;2.90;;
38182;SDS011;23991;52.430;10.586;2023-03-01T13:06:53;4.82;;;2.30;;
38182;SDS011;23991;52.430;10.586;2023-03-01T13:17:52;5.40;;;2.72;;
38182;SDS011;23991;52.430;10.586;2023-03-01T13:20:30;4.20;;;2.90;;
38182;SDS011;23991;52.430;10.586;2023-03-01T13:23:03;4.72;;;3.10;;
38182;SDS011;23991;52.430;10.586;2023-03-01T13:33:44;3.30;;;2.22;;
38182;SDS011;23991;52.430;10.586;2023-03-01T13:39:38;5.50;;;2.88;;
38182;SDS011;23991;52.430;10.586;2023-03-01T13:41:52;6.10;;;3.78;;
38182;SDS011;23991;52.430;10.586;2023-03-01T13:46:59;5.60;;;2.90;;
38182;SDS011;23991;52.430;10.586;2023-03-01T13:52:36;4.97;;;3.47;;
38182;SDS011;23991;52.430;10.586;2023-03-01T13:55:27;3.40;;;2.38;;
38182;SDS011;23991;52.430;10.586;2023-03-01T14:00:43;4.50;;;2.47;;
38182;SDS011;23991;52.430;10.586;2023-03-01T14:03:10;4.60;;;2.70;;
38182;SDS011;23991;52.430;10.586;2023-03-01T14:05:37;4.68;;;3.28;;
38182;SDS011;23991;52.430;10.586;2023-03-01T14:08:04;3.72;;;2.33;;
38182;SDS011;23991;52.430;10.586;2023-03-01T14:10:44;3.75;;;2.30;;
38182;SDS011;23991;52.430;10.586;2023-03-01T14:13:26;3.80;;;2.42;;
38182;SDS011;23991;52.430;10.586;2023-03-01T14:16:24;3.72;;;2.30;;
38182;SDS011;23991;52.430;10.586;2023-03-01T14:19:19;4.45;;;2.30;;
38182;SDS011;23991;52.430;10.586;2023-03-01T14:24:54;4.15;;;2.58;;
38182;SDS011;23991;52.430;10.586;2023-03-01T14:27:21;4.50;;;2.50;;
38182;SDS011;23991;52.430;10.586;2023-03-01T14:29:55;5.43;;;2.65;;
38182;SDS011;23991;52.430;10.586;2023-03-01T14:32:30;5.30;;;2.60;;
38182;SDS011;23991;52.430;10.586;2023-03-01T14:34:58;3.78;;;2.30;;
38182;SDS011;23991;52.430;10.586;2023-03-01T14:39:52;5.20;;;2.92;;
38182;SDS011;23991;52.430;10.586;2023-03-01T14:42:19;5.45;;;2.85;;
38182;SDS011;23991;52.430;10.586;2023-03-01T14:44:47;4.53;;;2.78;;
38182;SDS011;23991;52.430;10.586;2023-03-01T14:47:20;4.63;;;2.75;;
38182;SDS011;23991;52.430;10.586;2023-03-01T14:52:52;5.15;;;2.35;;
38182;SDS011;23991;52.430;10.586;2023-03-01T14:57:59;4.60;;;2.63;;
38182;SDS011;23991;52.430;10.586;2023-03-01T15:00:28;4.93;;;2.75;;
38182;SDS011;23991;52.430;10.586;2023-03-01T15:02:56;4.13;;;2.20;;
38182;SDS011;23991;52.430;10.586;2023-03-01T15:05:30;5.00;;;2.70;;
38182;SDS011;23991;52.430;10.586;2023-03-01T15:07:57;5.35;;;2.40;;
38182;SDS011;23991;52.430;10.586;2023-03-01T15:10:32;4.90;;;2.55;;
38182;SDS011;23991;52.430;10.586;2023-03-01T15:13:11;5.45;;;2.60;;
38182;SDS011;23991;52.430;10.586;2023-03-01T15:15:47;4.38;;;2.53;;
38182;SDS011;23991;52.430;10.586;2023-03-01T15:18:17;4.78;;;2.55;;
38182;SDS011;23991;52.430;10.586;2023-03-01T15:20:46;4.25;;;2.30;;
38182;SDS011;23991;52.430;10.586;2023-03-01T15:23:23;5.65;;;2.58;;
38182;SDS011;23991;52.430;10.586;2023-03-01T15:25:54;5.68;;;2.30;;
38182;SDS011;23991;52.430;10.586;2023-03-01T15:28:48;5.50;;;2.47;;
38182;SDS011;23991;52.430;10.586;2023-03-01T15:33:45;4.57;;;2.53;;
38182;SDS011;23991;52.430;10.586;2023-03-01T15:39:03;3.63;;;2.22;;
38182;SDS011;23991;52.430;10.586;2023-03-01T15:42:04;3.72;;;2.30;;
38182;SDS011;23991;52.430;10.586;2023-03-01T15:44:27;5.45;;;2.70;;
38182;SDS011;23991;52.430;10.586;2023-03-01T15:46:54;6.38;;;2.60;;
38182;SDS011;23991;52.430;10.586;2023-03-01T15:52:03;3.97;;;2.45;;
38182;SDS011;23991;52.430;10.586;2023-03-01T15:54:31;3.78;;;2.40;;
38182;SDS011;23991;52.430;10.586;2023-03-01T15:56:57;4.40;;;2.28;;
38182;SDS011;23991;52.430;10.586;2023-03-01T15:59:22;5.78;;;2.75;;
38182;SDS011;23991;52.430;10.586;2023-03-01T16:01:48;4.95;;;2.58;;
38182;SDS011;23991;52.430;10.586;2023-03-01T16:04:15;3.88;;;2.45;;
38182;SDS011;23991;52.430;10.586;2023-03-01T16:06:48;4.85;;;2.40;;
38182;SDS011;23991;52.430;10.586;2023-03-01T16:09:19;4.43;;;2.30;;
38182;SDS011;23991;52.430;10.586;2023-03-01T16:11:48;4.32;;;2.33;;
38182;SDS011;23991;52.430;10.586;2023-03-01T16:14:14;4.70;;;2.30;;
38182;SDS011;23991;52.430;10.586;2023-03-01T16:16:41;4.85;;;2.40;;
38182;SDS011;23991;52.430;10.586;2023-03-01T16:19:07;4.10;;;2.47;;
38182;SDS011;23991;52.430;10.586;2023-03-01T16:21:32;6.00;;;2.85;;
38182;SDS011;23991;52.430;10.586;2023-03-01T16:23:58;4.60;;;2.50;;
38182;SDS011;23991;52.430;10.586;2023-03-01T16:26:23;4.30;;;2.53;;
38182;SDS011;23991;52.430;10.586;2023-03-01T16:28:49;3.65;;;2.60;;
38182;SDS011;23991;52.430;10.586;2023-03-01T16:31:18;6.50;;;3.20;;
38182;SDS011;23991;52.430;10.586;2023-03-01T16:33:44;4.43;;;2.90;;
38182;SDS011;23991;52.430;10.586;2023-03-01T16:38:40;8.35;;;5.47;;